createdAt,value
2019-02-24T00:00:40.777Z,101488.00
2019-02-24T00:02:46.511Z,101481.00
2019-02-24T00:04:51.689Z,101488.00
2019-02-24T00:06:57.043Z,101489.00
2019-02-24T00:09:02.118Z,101486.00
2019-02-24T00:11:07.445Z,101491.00
2019-02-24T00:13:13.192Z,101488.00
2019-02-24T00:15:18.368Z,101485.00
2019-02-24T00:17:23.434Z,101490.00
2019-02-24T00:19:28.756Z,101483.00
2019-02-24T00:21:34.097Z,101487.00
2019-02-24T00:23:39.240Z,101485.00
2019-02-24T00:25:44.944Z,101468.00
2019-02-24T00:27:49.991Z,101469.00
2019-02-24T00:29:55.456Z,101476.00
2019-02-24T00:32:00.986Z,101475.00
2019-02-24T00:34:06.268Z,101482.00
2019-02-24T00:36:11.857Z,101479.00
2019-02-24T00:38:17.154Z,101469.00
2019-02-24T00:40:22.130Z,101465.00
2019-02-24T00:42:27.804Z,101476.00
2019-02-24T00:44:32.934Z,101478.00
2019-02-24T00:46:38.208Z,101472.00
2019-02-24T00:48:43.225Z,101480.00
2019-02-24T00:50:48.521Z,101473.00
2019-02-24T00:52:53.755Z,101483.00
2019-02-24T00:54:59.273Z,101481.00
2019-02-24T00:57:04.686Z,101480.00
2019-02-24T00:59:09.951Z,101484.00
2019-02-24T01:01:15.501Z,101475.00
2019-02-24T01:03:20.962Z,101476.00
2019-02-24T01:05:25.935Z,101480.00
2019-02-24T01:07:31.262Z,101484.00
2019-02-24T01:09:36.184Z,101486.00
2019-02-24T01:11:41.574Z,101490.00
2019-02-24T01:13:46.886Z,101474.00
2019-02-24T01:15:51.864Z,101476.00
2019-02-24T01:17:57.091Z,101462.00
2019-02-24T01:20:02.287Z,101471.00
2019-02-24T01:22:07.409Z,101469.00
2019-02-24T01:24:12.592Z,101470.00
2019-02-24T01:26:17.987Z,101478.00
2019-02-24T01:28:25.473Z,101475.00
2019-02-24T01:30:30.155Z,101470.00
2019-02-24T01:32:35.416Z,101474.00
2019-02-24T01:34:40.369Z,101468.00
2019-02-24T01:36:45.641Z,101464.00
2019-02-24T01:38:50.933Z,101463.00
2019-02-24T01:40:56.472Z,101466.00
2019-02-24T01:43:01.862Z,101471.00
2019-02-24T01:45:07.523Z,101463.00
2019-02-24T01:47:12.747Z,101468.00
2019-02-24T01:49:17.939Z,101466.00
2019-02-24T01:51:23.166Z,101463.00
2019-02-24T01:53:28.957Z,101466.00
2019-02-24T01:55:34.315Z,101458.00
2019-02-24T01:57:39.872Z,101462.00
2019-02-24T01:59:45.538Z,101463.00
2019-02-24T02:01:53.702Z,101461.00
2019-02-24T02:04:00.865Z,101458.00
2019-02-24T02:06:08.387Z,101462.00
2019-02-24T02:08:14.481Z,101461.00
2019-02-24T02:10:19.431Z,101468.00
2019-02-24T02:12:24.856Z,101462.00
2019-02-24T02:14:30.512Z,101462.00
2019-02-24T02:16:35.778Z,101464.00
2019-02-24T02:18:41.503Z,101444.00
2019-02-24T02:20:47.915Z,101443.00
2019-02-24T02:22:53.988Z,101446.00
2019-02-24T02:24:59.114Z,101440.00
2019-02-24T02:27:04.423Z,101442.00
2019-02-24T02:29:09.723Z,101436.00
2019-02-24T02:31:15.323Z,101438.00
2019-02-24T02:33:20.289Z,101444.00
2019-02-24T02:35:25.643Z,101437.00
2019-02-24T02:37:31.275Z,101436.00
2019-02-24T02:39:36.737Z,101437.00
2019-02-24T02:41:42.399Z,101426.00
2019-02-24T02:43:47.644Z,101431.00
2019-02-24T02:45:52.560Z,101432.00
2019-02-24T02:47:57.485Z,101417.00
2019-02-24T02:50:02.526Z,101409.00
2019-02-24T02:52:07.511Z,101408.00
2019-02-24T02:54:12.721Z,101412.00
2019-02-24T02:56:17.974Z,101404.00
2019-02-24T02:58:22.974Z,101405.00
2019-02-24T03:00:35.037Z,101399.00
2019-02-24T03:02:42.263Z,101404.00
2019-02-24T03:04:47.494Z,101409.00
2019-02-24T03:07:13.439Z,101402.00
2019-02-24T03:09:18.683Z,101406.00
2019-02-24T03:11:24.070Z,101397.00
2019-02-24T03:13:29.066Z,101404.00
2019-02-24T03:15:34.306Z,101403.00
2019-02-24T03:17:39.294Z,101405.00
2019-02-24T03:19:44.272Z,101404.00
2019-02-24T03:21:49.593Z,101414.00
2019-02-24T03:23:54.570Z,101413.00
2019-02-24T03:25:59.493Z,101421.00
2019-02-24T03:28:04.578Z,101430.00
2019-02-24T03:30:10.397Z,101422.00
2019-02-24T03:32:15.373Z,101427.00
2019-02-24T03:34:20.338Z,101434.00
2019-02-24T03:36:25.487Z,101428.00
2019-02-24T03:38:30.472Z,101433.00
2019-02-24T03:40:35.475Z,101427.00
2019-02-24T03:42:40.510Z,101418.00
2019-02-24T03:44:45.950Z,101430.00
2019-02-24T03:46:50.922Z,101427.00
2019-02-24T03:48:56.285Z,101437.00
2019-02-24T03:51:01.551Z,101434.00
2019-02-24T03:53:06.926Z,101434.00
2019-02-24T03:55:12.000Z,101435.00
2019-02-24T03:57:16.996Z,101440.00
2019-02-24T03:59:22.644Z,101434.00
2019-02-24T04:01:27.712Z,101437.00
2019-02-24T04:03:33.296Z,101446.00
2019-02-24T04:05:41.527Z,101436.00
2019-02-24T04:07:46.797Z,101439.00
2019-02-24T04:09:51.832Z,101436.00
2019-02-24T04:11:56.790Z,101430.00
2019-02-24T04:14:02.197Z,101430.00
2019-02-24T04:16:07.653Z,101430.00
2019-02-24T04:18:12.577Z,101433.00
2019-02-24T04:20:17.469Z,101435.00
2019-02-24T04:22:22.465Z,101432.00
2019-02-24T04:24:27.698Z,101442.00
2019-02-24T04:26:33.121Z,101434.00
2019-02-24T04:28:38.128Z,101432.00
2019-02-24T04:30:43.039Z,101440.00
2019-02-24T04:32:47.937Z,101436.00
2019-02-24T04:34:53.319Z,101441.00
2019-02-24T04:36:58.229Z,101446.00
2019-02-24T04:39:03.527Z,101442.00
2019-02-24T04:41:09.109Z,101436.00
2019-02-24T04:43:14.707Z,101440.00
2019-02-24T04:45:20.209Z,101439.00
2019-02-24T04:47:25.579Z,101435.00
2019-02-24T04:49:31.044Z,101432.00
2019-02-24T04:51:36.034Z,101446.00
2019-02-24T04:53:40.978Z,101439.00
2019-02-24T04:55:46.011Z,101445.00
2019-02-24T04:57:51.258Z,101453.00
2019-02-24T04:59:56.819Z,101444.00
2019-02-24T05:02:01.885Z,101440.00
2019-02-24T05:04:06.885Z,101440.00
2019-02-24T05:06:12.176Z,101451.00
2019-02-24T05:08:17.095Z,101441.00
2019-02-24T05:10:22.191Z,101436.00
2019-02-24T05:12:27.220Z,101450.00
2019-02-24T05:14:32.542Z,101444.00
2019-02-24T05:16:37.448Z,101442.00
2019-02-24T05:18:42.766Z,101449.00
2019-02-24T05:20:48.022Z,101452.00
2019-02-24T05:22:52.956Z,101455.00
2019-02-24T05:24:58.139Z,101453.00
2019-02-24T05:27:03.127Z,101456.00
2019-02-24T05:29:08.182Z,101455.00
2019-02-24T05:31:13.134Z,101451.00
2019-02-24T05:33:18.324Z,101462.00
2019-02-24T05:35:23.318Z,101457.00
2019-02-24T05:37:28.234Z,101444.00
2019-02-24T05:39:33.230Z,101444.00
2019-02-24T05:41:38.183Z,101446.00
2019-02-24T05:43:43.150Z,101460.00
2019-02-24T05:45:48.035Z,101458.00
2019-02-24T05:47:53.613Z,101455.00
2019-02-24T05:49:58.849Z,101452.00
2019-02-24T05:52:03.786Z,101458.00
2019-02-24T05:54:08.805Z,101449.00
2019-02-24T05:56:13.794Z,101458.00
2019-02-24T05:58:19.354Z,101446.00
2019-02-24T06:00:24.806Z,101453.00
2019-02-24T06:02:30.194Z,101441.00
2019-02-24T06:04:35.414Z,101449.00
2019-02-24T06:06:40.787Z,101454.00
2019-02-24T06:08:46.033Z,101450.00
2019-02-24T06:10:51.608Z,101453.00
2019-02-24T06:12:56.860Z,101454.00
2019-02-24T06:15:02.083Z,101455.00
2019-02-24T06:17:07.135Z,101464.00
2019-02-24T06:19:12.754Z,101463.00
2019-02-24T06:21:18.350Z,101471.00
2019-02-24T06:23:23.302Z,101482.00
2019-02-24T06:25:28.315Z,101470.00
2019-02-24T06:27:33.212Z,101456.00
2019-02-24T06:29:38.214Z,101459.00
2019-02-24T06:31:43.256Z,101467.00
2019-02-24T06:33:48.203Z,101470.00
2019-02-24T06:35:53.178Z,101466.00
2019-02-24T06:37:58.598Z,101472.00
2019-02-24T06:40:03.944Z,101477.00
2019-02-24T06:42:09.215Z,101472.00
2019-02-24T06:44:14.145Z,101481.00
2019-02-24T06:46:19.060Z,101475.00
2019-02-24T06:48:24.058Z,101474.00
2019-02-24T06:50:35.393Z,101481.00
2019-02-24T06:52:39.268Z,101478.00
2019-02-24T06:54:44.204Z,101476.00
2019-02-24T06:56:49.579Z,101480.00
2019-02-24T06:58:54.563Z,101490.00
2019-02-24T07:00:59.558Z,101480.00
2019-02-24T07:03:04.925Z,101479.00
2019-02-24T07:05:10.051Z,101469.00
2019-02-24T07:07:15.285Z,101474.00
2019-02-24T07:09:20.380Z,101475.00
2019-02-24T07:11:25.758Z,101482.00
2019-02-24T07:13:30.759Z,101475.00
2019-02-24T07:15:36.458Z,101476.00
2019-02-24T07:17:41.401Z,101481.00
2019-02-24T07:19:46.382Z,101475.00
2019-02-24T07:21:51.983Z,101477.00
2019-02-24T07:23:56.884Z,101476.00
2019-02-24T07:26:01.948Z,101468.00
2019-02-24T07:28:07.094Z,101471.00
2019-02-24T07:30:12.167Z,101475.00
2019-02-24T07:32:17.133Z,101473.00
2019-02-24T07:34:22.148Z,101474.00
2019-02-24T07:36:27.236Z,101474.00
2019-02-24T07:38:32.166Z,101480.00
2019-02-24T07:40:37.479Z,101471.00
2019-02-24T07:42:42.460Z,101469.00
2019-02-24T07:44:47.555Z,101467.00
2019-02-24T07:46:52.979Z,101475.00
2019-02-24T07:48:58.314Z,101466.00
2019-02-24T07:51:03.552Z,101471.00
2019-02-24T07:53:08.553Z,101477.00
2019-02-24T07:55:13.871Z,101483.00
2019-02-24T07:57:19.336Z,101484.00
2019-02-24T07:59:24.711Z,101479.00
2019-02-24T08:01:30.044Z,101476.00
2019-02-24T08:03:36.004Z,101476.00
2019-02-24T08:05:40.900Z,101468.00
2019-02-24T08:07:46.321Z,101458.00
2019-02-24T08:09:51.706Z,101480.00
2019-02-24T08:11:56.685Z,101465.00
2019-02-24T08:14:01.886Z,101467.00
2019-02-24T08:16:06.880Z,101462.00
2019-02-24T08:18:12.066Z,101457.00
2019-02-24T08:20:17.457Z,101459.00
2019-02-24T08:22:22.913Z,101460.00
2019-02-24T08:24:29.196Z,101468.00
2019-02-24T08:26:34.898Z,101474.00
2019-02-24T08:28:40.623Z,101478.00
2019-02-24T08:30:45.880Z,101477.00
2019-02-24T08:32:50.798Z,101472.00
2019-02-24T08:34:55.820Z,101479.00
2019-02-24T08:37:01.064Z,101471.00
2019-02-24T08:39:06.727Z,101474.00
2019-02-24T08:41:11.922Z,101478.00
2019-02-24T08:43:16.908Z,101481.00
2019-02-24T08:45:22.357Z,101467.00
2019-02-24T08:47:28.114Z,101476.00
2019-02-24T08:49:33.620Z,101475.00
2019-02-24T08:51:39.051Z,101488.00
2019-02-24T08:53:45.950Z,101482.00
2019-02-24T08:55:51.077Z,101479.00
2019-02-24T08:57:56.086Z,101484.00
2019-02-24T09:00:01.492Z,101487.00
2019-02-24T09:02:06.827Z,101490.00
2019-02-24T09:04:12.211Z,101498.00
2019-02-24T09:06:17.682Z,101507.00
2019-02-24T09:08:23.026Z,101509.00
2019-02-24T09:10:28.493Z,101504.00
2019-02-24T09:12:33.451Z,101508.00
2019-02-24T09:14:38.514Z,101505.00
2019-02-24T09:16:44.941Z,101501.00
2019-02-24T09:18:49.955Z,101498.00
2019-02-24T09:20:54.873Z,101493.00
2019-02-24T09:23:00.229Z,101498.00
2019-02-24T09:25:05.844Z,101494.00
2019-02-24T09:27:11.165Z,101493.00
2019-02-24T09:29:16.198Z,101497.00
2019-02-24T09:31:21.102Z,101499.00
2019-02-24T09:33:26.728Z,101497.00
2019-02-24T09:35:32.075Z,101502.00
2019-02-24T09:37:37.334Z,101495.00
2019-02-24T09:39:42.281Z,101498.00
2019-02-24T09:41:47.347Z,101507.00
2019-02-24T09:43:52.499Z,101510.00
2019-02-24T09:45:57.842Z,101502.00
2019-02-24T09:48:03.081Z,101501.00
2019-02-24T09:50:08.696Z,101504.00
2019-02-24T09:52:14.040Z,101511.00
2019-02-24T09:54:19.277Z,101510.00
2019-02-24T09:56:24.842Z,101497.00
2019-02-24T09:58:29.830Z,101501.00
2019-02-24T10:00:34.979Z,101509.00
2019-02-24T10:02:40.293Z,101501.00
2019-02-24T10:04:45.648Z,101507.00
2019-02-24T10:06:50.743Z,101514.00
2019-02-24T10:08:55.741Z,101508.00
2019-02-24T10:11:00.700Z,101507.00
2019-02-24T10:13:05.773Z,101513.00
2019-02-24T10:15:11.056Z,101503.00
2019-02-24T10:17:16.471Z,101497.00
2019-02-24T10:19:21.547Z,101498.00
2019-02-24T10:21:26.568Z,101504.00
2019-02-24T10:23:31.974Z,101509.00
2019-02-24T10:25:36.958Z,101503.00
2019-02-24T10:27:42.173Z,101499.00
2019-02-24T10:29:47.772Z,101505.00
2019-02-24T10:31:52.988Z,101505.00
2019-02-24T10:33:58.073Z,101502.00
2019-02-24T10:36:03.458Z,101507.00
2019-02-24T10:38:08.740Z,101508.00
2019-02-24T10:40:14.898Z,101505.00
2019-02-24T10:42:20.059Z,101511.00
2019-02-24T10:44:25.176Z,101511.00
2019-02-24T10:46:30.101Z,101505.00
2019-02-24T10:48:35.408Z,101512.00
2019-02-24T10:50:40.870Z,101523.00
2019-02-24T10:52:46.233Z,101525.00
2019-02-24T10:54:51.583Z,101509.00
2019-02-24T10:56:56.936Z,101501.00
2019-02-24T10:59:02.097Z,101510.00
2019-02-24T11:01:07.615Z,101514.00
2019-02-24T11:03:12.913Z,101504.00
2019-02-24T11:05:18.585Z,101511.00
2019-02-24T11:07:23.597Z,101505.00
2019-02-24T11:09:28.763Z,101502.00
2019-02-24T11:11:34.267Z,101494.00
2019-02-24T11:13:39.607Z,101491.00
2019-02-24T11:15:44.588Z,101485.00
2019-02-24T11:17:49.688Z,101477.00
2019-02-24T11:19:55.604Z,101479.00
2019-02-24T11:22:00.694Z,101482.00
2019-02-24T11:24:06.084Z,101476.00
2019-02-24T11:26:11.953Z,101472.00
2019-02-24T11:28:17.049Z,101473.00
2019-02-24T11:30:22.461Z,101466.00
2019-02-24T11:32:27.602Z,101468.00
2019-02-24T11:34:32.646Z,101464.00
2019-02-24T11:36:37.686Z,101469.00
2019-02-24T11:38:42.995Z,101466.00
2019-02-24T11:40:48.347Z,101477.00
2019-02-24T11:42:53.451Z,101473.00
2019-02-24T11:44:58.648Z,101471.00
2019-02-24T11:47:04.711Z,101467.00
2019-02-24T11:49:09.967Z,101468.00
2019-02-24T11:51:14.947Z,101468.00
2019-02-24T11:53:19.870Z,101476.00
2019-02-24T11:55:25.525Z,101459.00
2019-02-24T11:57:30.791Z,101463.00
2019-02-24T11:59:36.153Z,101455.00
2019-02-24T12:01:47.400Z,101462.00
2019-02-24T12:03:48.104Z,101456.00
2019-02-24T12:05:53.759Z,101463.00
2019-02-24T12:07:59.251Z,101466.00
2019-02-24T12:10:04.834Z,101464.00
2019-02-24T12:12:10.132Z,101475.00
2019-02-24T12:14:15.571Z,101473.00
2019-02-24T12:16:20.863Z,101469.00
2019-02-24T12:18:26.223Z,101475.00
2019-02-24T12:20:31.676Z,101479.00
2019-02-24T12:22:37.140Z,101472.00
2019-02-24T12:24:42.263Z,101473.00
2019-02-24T12:26:47.270Z,101474.00
2019-02-24T12:28:52.498Z,101465.00
2019-02-24T12:30:57.748Z,101472.00
2019-02-24T12:33:03.115Z,101463.00
2019-02-24T12:35:09.008Z,101467.00
2019-02-24T12:37:14.329Z,101469.00
2019-02-24T12:39:19.368Z,101452.00
2019-02-24T12:41:24.750Z,101455.00
2019-02-24T12:43:29.696Z,101466.00
2019-02-24T12:45:35.050Z,101458.00
2019-02-24T12:47:40.528Z,101454.00
2019-02-24T12:49:45.513Z,101450.00
2019-02-24T12:51:51.027Z,101449.00
2019-02-24T12:53:56.331Z,101448.00
2019-02-24T12:56:01.398Z,101447.00
2019-02-24T12:58:07.526Z,101445.00
2019-02-24T13:00:16.678Z,101450.00
2019-02-24T13:02:22.117Z,101452.00
2019-02-24T13:04:28.915Z,101457.00
2019-02-24T13:06:34.194Z,101450.00
2019-02-24T13:08:39.218Z,101448.00
2019-02-24T13:10:44.350Z,101450.00
2019-02-24T13:12:49.419Z,101451.00
2019-02-24T13:14:54.331Z,101449.00
2019-02-24T13:16:59.827Z,101448.00
2019-02-24T13:19:04.888Z,101446.00
2019-02-24T13:21:10.342Z,101445.00
2019-02-24T13:23:15.519Z,101449.00
2019-02-24T13:25:21.307Z,101444.00
2019-02-24T13:27:26.312Z,101431.00
2019-02-24T13:29:31.749Z,101438.00
2019-02-24T13:31:36.798Z,101435.00
2019-02-24T13:33:41.845Z,101432.00
2019-02-24T13:35:47.257Z,101423.00
2019-02-24T13:37:52.596Z,101432.00
2019-02-24T13:39:57.741Z,101425.00
2019-02-24T13:42:03.094Z,101420.00
2019-02-24T13:44:08.481Z,101424.00
2019-02-24T13:46:13.921Z,101428.00
2019-02-24T13:48:19.273Z,101436.00
2019-02-24T13:50:24.737Z,101436.00
2019-02-24T13:52:30.225Z,101428.00
2019-02-24T13:54:35.661Z,101429.00
2019-02-24T13:56:40.779Z,101429.00
2019-02-24T13:58:45.801Z,101424.00
2019-02-24T14:00:51.298Z,101425.00
2019-02-24T14:02:56.217Z,101435.00
2019-02-24T14:05:01.149Z,101430.00
2019-02-24T14:07:06.607Z,101433.00
2019-02-24T14:09:11.988Z,101426.00
2019-02-24T14:11:17.183Z,101430.00
2019-02-24T14:13:22.467Z,101415.00
2019-02-24T14:15:27.598Z,101423.00
2019-02-24T14:17:32.691Z,101402.00
2019-02-24T14:19:38.015Z,101410.00
2019-02-24T14:21:43.282Z,101418.00
2019-02-24T14:23:48.237Z,101414.00
2019-02-24T14:25:53.790Z,101403.00
2019-02-24T14:27:58.922Z,101396.00
2019-02-24T14:30:04.439Z,101401.00
2019-02-24T14:32:09.901Z,101402.00
2019-02-24T14:34:14.837Z,101404.00
2019-02-24T14:36:20.393Z,101411.00
2019-02-24T14:38:25.735Z,101408.00
2019-02-24T14:40:30.718Z,101410.00
2019-02-24T14:42:35.782Z,101404.00
2019-02-24T14:44:40.779Z,101410.00
2019-02-24T14:46:46.041Z,101410.00
2019-02-24T14:48:52.412Z,101408.00
2019-02-24T14:50:57.502Z,101414.00
2019-02-24T14:53:02.623Z,101424.00
2019-02-24T14:55:08.404Z,101412.00
2019-02-24T14:57:13.948Z,101428.00
2019-02-24T14:59:19.014Z,101420.00
2019-02-24T15:01:24.362Z,101417.00
2019-02-24T15:03:29.482Z,101419.00
2019-02-24T15:05:34.781Z,101420.00
2019-02-24T15:07:40.085Z,101418.00
2019-02-24T15:09:45.050Z,101430.00
2019-02-24T15:11:50.331Z,101437.00
2019-02-24T15:13:55.395Z,101428.00
2019-02-24T15:16:00.460Z,101420.00
2019-02-24T15:18:05.983Z,101426.00
2019-02-24T15:20:14.221Z,101417.00
2019-02-24T15:22:19.897Z,101425.00
2019-02-24T15:24:25.389Z,101430.00
2019-02-24T15:26:30.489Z,101423.00
2019-02-24T15:28:35.576Z,101438.00
2019-02-24T15:30:41.036Z,101427.00
2019-02-24T15:32:51.642Z,101441.00
2019-02-24T15:34:53.510Z,101439.00
2019-02-24T15:36:58.946Z,101434.00
2019-02-24T15:39:04.625Z,101437.00
2019-02-24T15:41:09.727Z,101440.00
2019-02-24T15:43:15.086Z,101442.00
2019-02-24T15:45:20.331Z,101445.00
2019-02-24T15:47:26.249Z,101446.00
2019-02-24T15:49:31.408Z,101435.00
2019-02-24T15:51:36.742Z,101442.00
2019-02-24T15:53:42.229Z,101443.00
2019-02-24T15:55:47.445Z,101442.00
2019-02-24T15:57:52.724Z,101441.00
2019-02-24T15:59:57.966Z,101446.00
2019-02-24T16:02:03.531Z,101440.00
2019-02-24T16:04:08.763Z,101436.00
2019-02-24T16:06:14.460Z,101441.00
2019-02-24T16:08:19.654Z,101455.00
2019-02-24T16:10:25.140Z,101446.00
2019-02-24T16:12:30.635Z,101443.00
2019-02-24T16:14:35.891Z,101451.00
2019-02-24T16:16:41.221Z,101457.00
2019-02-24T16:18:46.342Z,101457.00
2019-02-24T16:20:51.320Z,101465.00
2019-02-24T16:22:57.010Z,101448.00
2019-02-24T16:25:02.652Z,101458.00
2019-02-24T16:27:07.933Z,101464.00
2019-02-24T16:29:13.097Z,101458.00
2019-02-24T16:31:18.582Z,101455.00
2019-02-24T16:33:25.269Z,101462.00
2019-02-24T16:35:30.695Z,101457.00
2019-02-24T16:37:36.269Z,101456.00
2019-02-24T16:39:41.845Z,101463.00
2019-02-24T16:41:47.273Z,101457.00
2019-02-24T16:43:52.513Z,101460.00
2019-02-24T16:45:57.516Z,101460.00
2019-02-24T16:48:02.473Z,101468.00
2019-02-24T16:50:09.716Z,101459.00
2019-02-24T16:52:15.097Z,101465.00
2019-02-24T16:54:20.022Z,101463.00
2019-02-24T16:56:25.044Z,101471.00
2019-02-24T16:58:30.559Z,101461.00
2019-02-24T17:00:35.963Z,101457.00
2019-02-24T17:02:41.029Z,101470.00
2019-02-24T17:04:46.430Z,101474.00
2019-02-24T17:06:51.485Z,101468.00
2019-02-24T17:09:00.541Z,101476.00
2019-02-24T17:11:07.381Z,101479.00
2019-02-24T17:13:10.513Z,101487.00
2019-02-24T17:15:15.665Z,101487.00
2019-02-24T17:17:21.021Z,101483.00
2019-02-24T17:19:26.380Z,101486.00
2019-02-24T17:21:31.653Z,101484.00
2019-02-24T17:23:36.595Z,101482.00
2019-02-24T17:25:42.078Z,101478.00
2019-02-24T17:27:47.121Z,101487.00
2019-02-24T17:29:52.355Z,101490.00
2019-02-24T17:31:57.809Z,101493.00
2019-02-24T17:34:02.872Z,101494.00
2019-02-24T17:36:08.226Z,101492.00
2019-02-24T17:38:13.382Z,101498.00
2019-02-24T17:40:19.678Z,101497.00
2019-02-24T17:42:25.139Z,101501.00
2019-02-24T17:44:30.172Z,101505.00
2019-02-24T17:46:35.462Z,101510.00
2019-02-24T17:48:40.368Z,101517.00
2019-02-24T17:50:45.351Z,101512.00
2019-02-24T17:52:50.326Z,101510.00
2019-02-24T17:54:55.642Z,101507.00
2019-02-24T17:57:00.713Z,101514.00
2019-02-24T17:59:05.803Z,101521.00
2019-02-24T18:01:11.215Z,101525.00
2019-02-24T18:03:16.399Z,101517.00
2019-02-24T18:05:21.385Z,101521.00
2019-02-24T18:07:26.795Z,101517.00
2019-02-24T18:09:31.714Z,101521.00
2019-02-24T18:11:37.061Z,101510.00
2019-02-24T18:13:42.331Z,101515.00
2019-02-24T18:15:47.781Z,101508.00
2019-02-24T18:17:53.084Z,101515.00
2019-02-24T18:19:58.089Z,101515.00
2019-02-24T18:22:03.084Z,101529.00
2019-02-24T18:24:08.281Z,101526.00
2019-02-24T18:26:13.237Z,101524.00
2019-02-24T18:28:18.612Z,101525.00
2019-02-24T18:30:24.138Z,101540.00
2019-02-24T18:32:29.110Z,101536.00
2019-02-24T18:34:34.990Z,101536.00
2019-02-24T18:36:39.970Z,101526.00
2019-02-24T18:38:45.074Z,101531.00
2019-02-24T18:40:50.173Z,101531.00
2019-02-24T18:43:00.218Z,101531.00
2019-02-24T18:45:02.028Z,101532.00
2019-02-24T18:47:07.466Z,101541.00
2019-02-24T18:49:12.453Z,101533.00
2019-02-24T18:51:17.423Z,101529.00
2019-02-24T18:53:22.382Z,101530.00
2019-02-24T18:55:27.477Z,101524.00
2019-02-24T18:57:32.605Z,101525.00
2019-02-24T18:59:37.728Z,101528.00
2019-02-24T19:01:42.785Z,101530.00
2019-02-24T19:03:57.172Z,101532.00
2019-02-24T19:05:55.148Z,101526.00
2019-02-24T19:08:00.145Z,101529.00
2019-02-24T19:10:06.410Z,101536.00
2019-02-24T19:12:11.531Z,101525.00
2019-02-24T19:14:16.847Z,101531.00
2019-02-24T19:16:22.445Z,101527.00
2019-02-24T19:18:27.412Z,101525.00
2019-02-24T19:20:32.753Z,101522.00
2019-02-24T19:22:38.115Z,101527.00
2019-02-24T19:24:43.386Z,101518.00
2019-02-24T19:26:48.642Z,101526.00
2019-02-24T19:28:54.282Z,101524.00
2019-02-24T19:30:59.609Z,101530.00
2019-02-24T19:33:05.132Z,101534.00
2019-02-24T19:35:11.349Z,101516.00
2019-02-24T19:37:16.664Z,101525.00
2019-02-24T19:39:21.573Z,101522.00
2019-02-24T19:41:26.679Z,101526.00
2019-02-24T19:43:31.657Z,101533.00
2019-02-24T19:45:36.899Z,101524.00
2019-02-24T19:47:41.925Z,101533.00
2019-02-24T19:49:46.863Z,101526.00
2019-02-24T19:51:51.825Z,101524.00
2019-02-24T19:53:57.057Z,101528.00
2019-02-24T19:56:02.673Z,101528.00
2019-02-24T19:58:07.643Z,101530.00
2019-02-24T20:00:21.309Z,101526.00
2019-02-24T20:02:26.438Z,101519.00
2019-02-24T20:04:31.626Z,101531.00
2019-02-24T20:06:38.243Z,101535.00
2019-02-24T20:08:43.582Z,101532.00
2019-02-24T20:10:48.909Z,101535.00
2019-02-24T20:12:54.284Z,101536.00
2019-02-24T20:14:59.563Z,101532.00
2019-02-24T20:17:04.656Z,101534.00
2019-02-24T20:19:09.641Z,101531.00
2019-02-24T20:21:14.696Z,101525.00
2019-02-24T20:23:19.878Z,101538.00
2019-02-24T20:25:25.319Z,101529.00
2019-02-24T20:27:30.574Z,101546.00
2019-02-24T20:29:35.712Z,101552.00
2019-02-24T20:31:40.969Z,101551.00
2019-02-24T20:33:46.225Z,101551.00
2019-02-24T20:35:51.590Z,101559.00
2019-02-24T20:37:56.888Z,101556.00
2019-02-24T20:40:02.317Z,101544.00
2019-02-24T20:42:07.657Z,101547.00
2019-02-24T20:44:13.610Z,101553.00
2019-02-24T20:46:18.754Z,101550.00
2019-02-24T20:48:23.773Z,101552.00
2019-02-24T20:50:29.026Z,101552.00
2019-02-24T20:52:35.409Z,101546.00
2019-02-24T20:54:40.719Z,101553.00
2019-02-24T20:56:46.810Z,101562.00
2019-02-24T20:58:53.366Z,101551.00
2019-02-24T21:00:58.442Z,101570.00
2019-02-24T21:03:03.954Z,101560.00
2019-02-24T21:05:09.465Z,101554.00
2019-02-24T21:07:14.495Z,101565.00
2019-02-24T21:09:19.769Z,101572.00
2019-02-24T21:11:24.722Z,101560.00
2019-02-24T21:13:30.337Z,101563.00
2019-02-24T21:15:35.942Z,101564.00
2019-02-24T21:17:41.081Z,101556.00
2019-02-24T21:19:46.541Z,101562.00
2019-02-24T21:21:51.767Z,101569.00
2019-02-24T21:23:57.179Z,101578.00
2019-02-24T21:26:02.542Z,101565.00
2019-02-24T21:28:07.633Z,101570.00
2019-02-24T21:30:15.817Z,101573.00
2019-02-24T21:32:21.264Z,101574.00
2019-02-24T21:34:26.929Z,101572.00
2019-02-24T21:36:32.296Z,101573.00
2019-02-24T21:38:38.255Z,101571.00
2019-02-24T21:40:43.210Z,101572.00
2019-02-24T21:42:48.687Z,101562.00
2019-02-24T21:44:53.925Z,101560.00
2019-02-24T21:46:59.284Z,101562.00
2019-02-24T21:49:04.942Z,101560.00
2019-02-24T21:51:10.358Z,101556.00
2019-02-24T21:53:15.477Z,101552.00
2019-02-24T21:55:21.025Z,101563.00
2019-02-24T21:57:26.552Z,101562.00
2019-02-24T21:59:36.967Z,101556.00
2019-02-24T22:01:38.920Z,101569.00
2019-02-24T22:03:44.401Z,101566.00
2019-02-24T22:05:49.839Z,101557.00
2019-02-24T22:07:55.744Z,101561.00
2019-02-24T22:10:01.345Z,101559.00
2019-02-24T22:12:06.344Z,101564.00
2019-02-24T22:14:11.578Z,101566.00
2019-02-24T22:16:16.859Z,101570.00
2019-02-24T22:18:24.032Z,101564.00
2019-02-24T22:20:28.777Z,101563.00
2019-02-24T22:22:53.305Z,101563.00
2019-02-24T22:24:58.201Z,101556.00
2019-02-24T22:27:03.226Z,101558.00
2019-02-24T22:29:08.266Z,101552.00
2019-02-24T22:31:13.416Z,101549.00
2019-02-24T22:33:18.734Z,101544.00
2019-02-24T22:35:24.010Z,101558.00
2019-02-24T22:37:29.186Z,101552.00
2019-02-24T22:39:34.622Z,101545.00
2019-02-24T22:41:39.692Z,101545.00
2019-02-24T22:43:45.049Z,101552.00
2019-02-24T22:45:50.500Z,101551.00
2019-02-24T22:47:55.541Z,101560.00
2019-02-24T22:50:00.761Z,101570.00
2019-02-24T22:52:06.156Z,101562.00
2019-02-24T22:54:11.743Z,101569.00
2019-02-24T22:56:16.787Z,101576.00
2019-02-24T22:58:21.832Z,101573.00
2019-02-24T23:01:09.930Z,101571.00
2019-02-24T23:03:14.711Z,101584.00
2019-02-24T23:05:19.683Z,101562.00
2019-02-24T23:07:25.100Z,101572.00
2019-02-24T23:09:30.353Z,101577.00
2019-02-24T23:11:35.907Z,101568.00
2019-02-24T23:13:41.148Z,101576.00
2019-02-24T23:15:46.170Z,101572.00
2019-02-24T23:17:51.184Z,101566.00
2019-02-24T23:19:56.250Z,101577.00
2019-02-24T23:22:01.337Z,101571.00
2019-02-24T23:24:06.403Z,101563.00
2019-02-24T23:26:11.432Z,101572.00
2019-02-24T23:28:16.754Z,101580.00
2019-02-24T23:30:22.151Z,101575.00
2019-02-24T23:32:27.461Z,101577.00
2019-02-24T23:34:32.457Z,101572.00
2019-02-24T23:36:37.548Z,101573.00
2019-02-24T23:38:42.774Z,101586.00
2019-02-24T23:40:47.893Z,101588.00
2019-02-24T23:42:53.050Z,101600.00
2019-02-24T23:44:58.484Z,101591.00
2019-02-24T23:47:03.832Z,101593.00
2019-02-24T23:49:09.273Z,101593.00
2019-02-24T23:51:14.172Z,101587.00